createdAt,value
2023-01-29T00:00:09.929Z,5.15
2023-01-29T00:02:39.272Z,4.28
2023-01-29T00:05:25.452Z,4.90
2023-01-29T00:07:53.338Z,4.53
2023-01-29T00:10:19.815Z,4.93
2023-01-29T00:12:46.282Z,4.32
2023-01-29T00:15:12.733Z,4.25
2023-01-29T00:17:39.213Z,4.97
2023-01-29T00:20:06.144Z,4.13
2023-01-29T00:22:32.613Z,4.18
2023-01-29T00:24:59.157Z,4.18
2023-01-29T00:27:25.597Z,4.22
2023-01-29T00:30:11.246Z,4.88
2023-01-29T00:32:37.745Z,4.72
2023-01-29T00:35:04.585Z,4.50
2023-01-29T00:37:31.056Z,4.85
2023-01-29T00:39:57.675Z,5.75
2023-01-29T00:42:43.609Z,5.03
2023-01-29T00:45:12.024Z,4.30
2023-01-29T00:47:38.448Z,4.40
2023-01-29T00:50:08.481Z,5.28
2023-01-29T00:52:36.409Z,4.13
2023-01-29T00:55:05.633Z,4.05
2023-01-29T00:57:33.785Z,4.50
2023-01-29T01:00:00.464Z,4.30
2023-01-29T01:02:46.276Z,4.43
2023-01-29T01:05:18.142Z,4.30
2023-01-29T01:07:53.703Z,4.13
2023-01-29T01:10:26.301Z,4.50
2023-01-29T01:13:01.575Z,4.20
2023-01-29T01:15:31.243Z,4.68
2023-01-29T01:18:00.226Z,4.18
2023-01-29T01:20:30.136Z,4.55
2023-01-29T01:22:57.536Z,4.28
2023-01-29T01:25:25.669Z,3.97
2023-01-29T01:27:53.655Z,4.38
2023-01-29T01:30:20.594Z,4.32
2023-01-29T01:32:47.050Z,4.57
2023-01-29T01:35:16.213Z,4.60
2023-01-29T01:37:42.801Z,4.28
2023-01-29T01:40:18.047Z,4.60
2023-01-29T01:42:48.790Z,3.95
2023-01-29T01:45:20.092Z,4.40
2023-01-29T01:47:51.314Z,4.15
2023-01-29T01:50:24.808Z,4.20
2023-01-29T01:52:55.277Z,4.05
2023-01-29T01:55:25.983Z,4.72
2023-01-29T01:58:00.104Z,4.00
2023-01-29T02:00:26.952Z,4.15
2023-01-29T02:03:13.105Z,4.70
2023-01-29T02:05:59.455Z,4.68
2023-01-29T02:09:03.222Z,4.35
2023-01-29T02:11:30.626Z,4.53
2023-01-29T02:13:57.672Z,4.80
2023-01-29T02:16:25.674Z,4.05
2023-01-29T02:18:52.801Z,4.47
2023-01-29T02:21:50.698Z,4.35
2023-01-29T02:24:59.705Z,4.00
2023-01-29T02:27:35.967Z,4.63
2023-01-29T02:30:10.721Z,4.10
2023-01-29T02:32:58.535Z,4.07
2023-01-29T02:35:42.592Z,4.03
2023-01-29T02:38:47.637Z,4.47
2023-01-29T02:41:22.723Z,5.00
2023-01-29T02:44:02.193Z,4.13
2023-01-29T02:46:41.174Z,4.35
2023-01-29T02:49:26.433Z,4.93
2023-01-29T02:52:12.543Z,4.22
2023-01-29T02:55:03.060Z,4.38
2023-01-29T02:57:35.205Z,4.95
2023-01-29T03:00:09.559Z,4.88
2023-01-29T03:02:55.432Z,5.00
2023-01-29T03:05:30.926Z,4.78
2023-01-29T03:08:04.616Z,4.65
2023-01-29T03:10:47.196Z,4.63
2023-01-29T03:13:22.044Z,5.10
2023-01-29T03:16:01.409Z,4.97
2023-01-29T03:18:48.626Z,4.57
2023-01-29T03:21:41.388Z,4.75
2023-01-29T03:24:32.200Z,4.00
2023-01-29T03:27:22.889Z,4.60
2023-01-29T03:30:10.665Z,4.90
2023-01-29T03:32:52.036Z,4.70
2023-01-29T03:35:33.345Z,4.65
2023-01-29T03:38:00.892Z,4.90
2023-01-29T03:40:32.481Z,4.60
2023-01-29T03:43:32.149Z,4.55
2023-01-29T03:46:21.235Z,4.60
2023-01-29T03:48:53.245Z,4.90
2023-01-29T03:54:07.697Z,4.60
2023-01-29T03:56:45.695Z,4.30
2023-01-29T03:59:22.703Z,4.85
2023-01-29T04:02:11.500Z,4.25
2023-01-29T04:04:41.698Z,4.78
2023-01-29T04:07:19.098Z,4.57
2023-01-29T04:09:50.518Z,5.13
2023-01-29T04:12:24.329Z,5.18
2023-01-29T04:14:52.804Z,4.60
2023-01-29T04:17:26.004Z,5.22
2023-01-29T04:20:16.218Z,5.38
2023-01-29T04:22:47.282Z,5.43
2023-01-29T04:25:17.433Z,5.07
2023-01-29T04:28:11.359Z,4.65
2023-01-29T04:30:50.465Z,4.88
2023-01-29T04:33:32.127Z,5.10
2023-01-29T04:36:09.860Z,4.43
2023-01-29T04:38:52.058Z,4.57
2023-01-29T04:41:30.666Z,4.57
2023-01-29T04:44:28.698Z,5.07
2023-01-29T04:47:13.803Z,5.75
2023-01-29T04:49:52.837Z,4.63
2023-01-29T04:52:33.239Z,4.85
2023-01-29T04:55:24.448Z,5.07
2023-01-29T04:58:00.882Z,5.45
2023-01-29T05:00:32.263Z,5.78
2023-01-29T05:03:01.824Z,5.03
2023-01-29T05:05:29.024Z,5.97
2023-01-29T05:07:57.913Z,13.38
2023-01-29T05:10:25.351Z,5.60
2023-01-29T05:12:58.676Z,8.07
2023-01-29T05:15:33.460Z,5.53
2023-01-29T05:18:02.930Z,5.38
2023-01-29T05:20:34.095Z,5.43
2023-01-29T05:23:00.621Z,4.53
2023-01-29T05:25:31.077Z,5.80
2023-01-29T05:28:16.110Z,4.93
2023-01-29T05:30:51.251Z,4.93
2023-01-29T05:33:29.962Z,4.88
2023-01-29T05:35:58.801Z,4.25
2023-01-29T05:38:25.846Z,5.10
2023-01-29T05:40:52.279Z,4.38
2023-01-29T05:43:21.027Z,5.18
2023-01-29T05:45:54.377Z,4.22
2023-01-29T05:48:21.369Z,4.80
2023-01-29T05:50:48.048Z,4.38
2023-01-29T05:53:14.644Z,4.18
2023-01-29T05:55:45.552Z,4.90
2023-01-29T05:58:12.688Z,4.32
2023-01-29T06:00:39.640Z,5.03
2023-01-29T06:03:06.358Z,4.90
2023-01-29T06:05:32.842Z,4.25
2023-01-29T06:07:59.241Z,4.70
2023-01-29T06:10:25.781Z,4.55
2023-01-29T06:12:52.192Z,4.20
2023-01-29T06:15:19.749Z,4.20
2023-01-29T06:17:46.202Z,4.38
2023-01-29T06:20:13.729Z,5.15
2023-01-29T06:22:40.303Z,4.80
2023-01-29T06:25:07.408Z,5.07
2023-01-29T06:27:34.017Z,4.57
2023-01-29T06:30:00.539Z,5.07
2023-01-29T06:32:27.778Z,5.07
2023-01-29T06:34:54.242Z,4.55
2023-01-29T06:37:20.687Z,4.75
2023-01-29T06:39:47.118Z,4.40
2023-01-29T06:42:13.536Z,4.43
2023-01-29T06:44:39.945Z,4.18
2023-01-29T06:47:06.353Z,5.38
2023-01-29T06:49:32.757Z,4.63
2023-01-29T06:51:59.243Z,5.50
2023-01-29T06:54:25.844Z,4.80
2023-01-29T06:56:52.452Z,5.30
2023-01-29T06:59:18.887Z,4.75
2023-01-29T07:01:45.452Z,4.38
2023-01-29T07:04:12.028Z,5.65
2023-01-29T07:06:38.557Z,4.70
2023-01-29T07:09:05.300Z,5.03
2023-01-29T07:11:32.137Z,4.68
2023-01-29T07:13:58.566Z,5.30
2023-01-29T07:16:26.315Z,5.60
2023-01-29T07:18:53.476Z,5.22
2023-01-29T07:21:19.923Z,4.97
2023-01-29T07:23:46.507Z,4.90
2023-01-29T07:26:13.012Z,4.68
2023-01-29T07:28:39.957Z,5.60
2023-01-29T07:31:07.747Z,5.95
2023-01-29T07:33:34.653Z,5.50
2023-01-29T07:36:01.176Z,5.78
2023-01-29T07:38:27.818Z,4.60
2023-01-29T07:40:54.594Z,4.47
2023-01-29T07:43:21.049Z,5.35
2023-01-29T07:45:47.663Z,5.45
2023-01-29T07:48:14.142Z,5.82
2023-01-29T07:50:41.147Z,4.80
2023-01-29T07:53:07.713Z,9.85
2023-01-29T07:55:34.299Z,6.45
2023-01-29T07:58:02.806Z,5.03
2023-01-29T08:00:31.287Z,5.47
2023-01-29T08:03:24.151Z,4.80
2023-01-29T08:05:50.675Z,5.50
2023-01-29T08:08:17.161Z,8.07
2023-01-29T08:10:43.662Z,7.63
2023-01-29T08:13:10.182Z,5.57
2023-01-29T08:18:23.415Z,5.43
2023-01-29T08:20:49.810Z,5.43
2023-01-29T08:23:16.598Z,5.28
2023-01-29T08:25:43.506Z,6.03
2023-01-29T08:28:11.613Z,8.20
2023-01-29T08:30:38.552Z,10.32
2023-01-29T08:33:05.115Z,5.47
2023-01-29T08:35:31.784Z,7.13
2023-01-29T08:38:00.888Z,6.88
2023-01-29T08:40:29.355Z,6.13
2023-01-29T08:43:02.142Z,5.60
2023-01-29T08:45:30.183Z,5.95
2023-01-29T08:47:56.845Z,6.22
2023-01-29T08:50:23.377Z,6.22
2023-01-29T08:52:49.797Z,6.88
2023-01-29T08:55:16.579Z,5.35
2023-01-29T08:57:43.128Z,6.05
2023-01-29T09:00:10.584Z,5.07
2023-01-29T09:02:37.628Z,4.82
2023-01-29T09:05:04.401Z,4.82
2023-01-29T09:07:30.847Z,4.70
2023-01-29T09:09:57.425Z,4.30
2023-01-29T09:12:23.988Z,5.65
2023-01-29T09:14:50.509Z,5.00
2023-01-29T09:17:17.121Z,4.50
2023-01-29T09:19:43.710Z,4.28
2023-01-29T09:22:11.836Z,4.82
2023-01-29T09:24:38.769Z,4.50
2023-01-29T09:27:06.162Z,4.68
2023-01-29T09:29:35.452Z,5.03
2023-01-29T09:32:03.429Z,4.93
2023-01-29T09:34:29.926Z,4.88
2023-01-29T09:36:56.388Z,5.28
2023-01-29T09:39:22.794Z,4.90
2023-01-29T09:42:01.136Z,4.53
2023-01-29T09:44:54.412Z,5.03
2023-01-29T09:47:24.885Z,5.80
2023-01-29T09:49:59.064Z,6.18
2023-01-29T09:52:30.148Z,5.75
2023-01-29T09:55:06.853Z,5.57
2023-01-29T09:57:56.227Z,5.63
2023-01-29T10:00:40.235Z,5.72
2023-01-29T10:03:31.723Z,5.40
2023-01-29T10:06:16.814Z,5.60
2023-01-29T10:09:16.043Z,5.78
2023-01-29T10:11:58.235Z,5.57
2023-01-29T10:14:43.703Z,6.03
2023-01-29T10:18:01.510Z,5.38
2023-01-29T10:20:50.019Z,6.55
2023-01-29T10:23:41.318Z,6.68
2023-01-29T10:26:12.601Z,5.80
2023-01-29T10:28:46.255Z,5.53
2023-01-29T10:31:18.949Z,6.75
2023-01-29T10:34:01.382Z,6.43
2023-01-29T10:36:36.279Z,6.65
2023-01-29T10:39:02.730Z,6.57
2023-01-29T10:41:41.085Z,6.75
2023-01-29T10:44:25.858Z,6.57
2023-01-29T10:47:23.644Z,6.22
2023-01-29T10:50:02.215Z,7.07
2023-01-29T10:52:50.505Z,6.07
2023-01-29T10:55:28.218Z,6.70
2023-01-29T10:58:36.103Z,5.53
2023-01-29T11:01:02.761Z,6.00
2023-01-29T11:03:33.428Z,5.60
2023-01-29T11:06:21.629Z,6.53
2023-01-29T11:08:48.021Z,6.18
2023-01-29T11:11:17.693Z,6.00
2023-01-29T11:13:57.522Z,7.28
2023-01-29T11:16:24.436Z,5.60
2023-01-29T11:18:54.420Z,5.85
2023-01-29T11:21:21.295Z,6.63
2023-01-29T11:23:48.044Z,6.75
2023-01-29T11:26:20.619Z,5.57
2023-01-29T11:28:49.605Z,6.68
2023-01-29T11:31:22.409Z,6.60
2023-01-29T11:33:52.511Z,6.50
2023-01-29T11:36:28.484Z,6.57
2023-01-29T11:39:08.838Z,7.10
2023-01-29T11:42:04.492Z,6.80
2023-01-29T11:44:41.875Z,6.75
2023-01-29T11:47:20.957Z,6.95
2023-01-29T11:49:59.584Z,6.82
2023-01-29T11:52:34.729Z,6.78
2023-01-29T11:55:05.337Z,7.30
2023-01-29T11:57:42.866Z,6.80
2023-01-29T12:00:18.677Z,7.65
2023-01-29T12:02:53.780Z,6.95
2023-01-29T12:05:23.261Z,6.65
2023-01-29T12:07:53.212Z,7.30
2023-01-29T12:10:40.990Z,7.38
2023-01-29T12:13:10.767Z,7.00
2023-01-29T12:15:47.457Z,6.45
2023-01-29T12:18:35.531Z,7.13
2023-01-29T12:21:04.712Z,6.47
2023-01-29T12:23:49.764Z,7.55
2023-01-29T12:26:25.361Z,7.45
2023-01-29T12:29:04.661Z,7.75
2023-01-29T12:31:45.708Z,6.85
2023-01-29T12:34:38.316Z,5.93
2023-01-29T12:37:34.273Z,6.15
2023-01-29T12:40:01.679Z,6.25
2023-01-29T12:42:28.303Z,7.00
2023-01-29T12:45:01.342Z,6.38
2023-01-29T12:47:36.022Z,5.95
2023-01-29T12:50:08.004Z,7.95
2023-01-29T12:52:41.434Z,6.72
2023-01-29T12:55:22.067Z,7.85
2023-01-29T12:57:59.166Z,7.22
2023-01-29T13:00:29.507Z,7.05
2023-01-29T13:03:26.517Z,7.40
2023-01-29T13:05:57.013Z,7.05
2023-01-29T13:08:30.546Z,6.95
2023-01-29T13:11:00.919Z,6.72
2023-01-29T13:13:54.473Z,6.75
2023-01-29T13:16:37.482Z,6.47
2023-01-29T13:19:13.882Z,6.18
2023-01-29T13:21:43.765Z,7.38
2023-01-29T13:24:15.793Z,6.38
2023-01-29T13:26:47.307Z,6.30
2023-01-29T13:29:25.402Z,6.95
2023-01-29T13:32:03.718Z,6.75
2023-01-29T13:34:32.295Z,7.18
2023-01-29T13:37:02.151Z,6.75
2023-01-29T13:39:30.395Z,6.75
2023-01-29T13:41:59.106Z,7.45
2023-01-29T13:44:32.344Z,7.05
2023-01-29T13:47:01.842Z,6.30
2023-01-29T13:49:41.340Z,6.72
2023-01-29T13:52:21.159Z,6.13
2023-01-29T13:54:57.219Z,6.43
2023-01-29T13:57:39.207Z,6.75
2023-01-29T14:02:32.596Z,6.10
2023-01-29T14:05:30.282Z,6.05
2023-01-29T14:07:59.340Z,6.78
2023-01-29T14:10:31.431Z,6.28
2023-01-29T14:13:03.775Z,5.93
2023-01-29T14:15:39.232Z,7.03
2023-01-29T14:18:18.958Z,6.45
2023-01-29T14:20:48.259Z,6.88
2023-01-29T14:23:32.895Z,6.57
2023-01-29T14:26:01.076Z,7.25
2023-01-29T14:28:30.857Z,5.50
2023-01-29T14:30:57.827Z,5.07
2023-01-29T14:33:27.537Z,5.38
2023-01-29T14:35:56.804Z,5.22
2023-01-29T14:38:28.614Z,5.95
2023-01-29T14:41:32.582Z,6.20
2023-01-29T14:44:36.776Z,7.30
2023-01-29T14:47:04.692Z,5.72
2023-01-29T14:49:58.998Z,4.63
2023-01-29T14:52:35.867Z,5.30
2023-01-29T14:55:06.837Z,5.07
2023-01-29T14:57:34.017Z,4.65
2023-01-29T15:00:05.246Z,4.28
2023-01-29T15:02:40.478Z,4.85
2023-01-29T15:05:30.576Z,4.38
2023-01-29T15:08:06.214Z,3.50
2023-01-29T15:10:40.023Z,4.03
2023-01-29T15:13:29.489Z,4.15
2023-01-29T15:16:02.723Z,4.70
2023-01-29T15:18:42.259Z,4.88
2023-01-29T15:21:17.026Z,5.43
2023-01-29T15:23:45.261Z,4.63
2023-01-29T15:26:18.678Z,4.05
2023-01-29T15:28:54.860Z,4.10
2023-01-29T15:31:25.899Z,3.88
2023-01-29T15:33:56.090Z,3.80
2023-01-29T15:36:24.348Z,3.65
2023-01-29T15:39:09.433Z,3.83
2023-01-29T15:41:35.884Z,3.78
2023-01-29T15:44:02.308Z,3.55
2023-01-29T15:46:36.254Z,4.07
2023-01-29T15:49:08.641Z,3.83
2023-01-29T15:51:35.572Z,4.43
2023-01-29T15:54:04.776Z,4.40
2023-01-29T15:56:36.169Z,5.43
2023-01-29T15:59:09.830Z,4.35
2023-01-29T16:01:36.658Z,4.80
2023-01-29T16:04:04.192Z,4.68
2023-01-29T16:06:37.535Z,4.35
2023-01-29T16:09:05.398Z,3.88
2023-01-29T16:11:33.210Z,4.13
2023-01-29T16:14:01.328Z,3.25
2023-01-29T16:16:28.549Z,3.70
2023-01-29T16:19:00.423Z,4.15
2023-01-29T16:21:33.244Z,3.50
2023-01-29T16:24:11.823Z,4.47
2023-01-29T16:26:43.549Z,4.15
2023-01-29T16:31:39.656Z,3.80
2023-01-29T16:34:25.995Z,4.10
2023-01-29T16:36:54.671Z,4.55
2023-01-29T16:39:27.666Z,3.92
2023-01-29T16:42:17.481Z,3.65
2023-01-29T16:44:54.758Z,3.60
2023-01-29T16:47:31.408Z,3.95
2023-01-29T16:50:54.318Z,4.80
2023-01-29T16:53:23.283Z,5.32
2023-01-29T16:55:52.388Z,8.90
2023-01-29T16:58:26.000Z,9.05
2023-01-29T17:01:00.057Z,6.57
2023-01-29T17:03:28.522Z,6.15
2023-01-29T17:05:55.004Z,5.60
2023-01-29T17:08:33.632Z,6.07
2023-01-29T17:11:01.328Z,7.05
2023-01-29T17:13:42.636Z,7.07
2023-01-29T17:16:32.378Z,5.75
2023-01-29T17:19:00.220Z,7.55
2023-01-29T17:21:26.933Z,8.15
2023-01-29T17:23:53.807Z,8.13
2023-01-29T17:26:21.009Z,7.88
2023-01-29T17:28:51.247Z,7.57
2023-01-29T17:31:17.830Z,9.35
2023-01-29T17:33:45.807Z,9.02
2023-01-29T17:36:15.279Z,9.20
2023-01-29T17:38:41.951Z,8.80
2023-01-29T17:41:18.338Z,8.35
2023-01-29T17:43:44.891Z,9.00
2023-01-29T17:46:16.718Z,9.20
2023-01-29T17:48:43.767Z,8.15
2023-01-29T17:51:15.012Z,8.93
2023-01-29T17:53:45.889Z,8.18
2023-01-29T17:56:30.897Z,9.75
2023-01-29T17:58:57.313Z,8.27
2023-01-29T18:01:23.886Z,9.70
2023-01-29T18:03:50.407Z,8.48
2023-01-29T18:06:28.624Z,7.65
2023-01-29T18:08:56.401Z,6.75
2023-01-29T18:11:23.451Z,7.75
2023-01-29T18:13:50.788Z,8.35
2023-01-29T18:16:18.453Z,11.07
2023-01-29T18:18:44.983Z,8.40
2023-01-29T18:21:11.476Z,7.78
2023-01-29T18:23:37.942Z,7.15
2023-01-29T18:26:04.805Z,7.72
2023-01-29T18:28:31.363Z,8.00
2023-01-29T18:30:57.830Z,8.68
2023-01-29T18:33:25.789Z,10.65
2023-01-29T18:35:54.939Z,13.90
2023-01-29T18:38:21.437Z,7.88
2023-01-29T18:40:47.926Z,7.75
2023-01-29T18:43:15.279Z,8.45
2023-01-29T18:45:42.066Z,7.78
2023-01-29T18:48:08.793Z,7.53
2023-01-29T18:50:36.329Z,8.52
2023-01-29T18:53:04.205Z,9.50
2023-01-29T18:55:30.723Z,8.88
2023-01-29T18:58:24.929Z,8.23
2023-01-29T19:00:43.843Z,8.30
2023-01-29T19:03:11.092Z,9.52
2023-01-29T19:05:37.869Z,9.13
2023-01-29T19:08:05.488Z,8.93
2023-01-29T19:10:32.054Z,8.05
2023-01-29T19:12:58.498Z,10.45
2023-01-29T19:15:24.955Z,7.50
2023-01-29T19:17:51.659Z,8.35
2023-01-29T19:20:18.779Z,9.55
2023-01-29T19:22:45.372Z,10.10
2023-01-29T19:25:12.583Z,8.73
2023-01-29T19:27:39.208Z,9.73
2023-01-29T19:30:06.277Z,8.18
2023-01-29T19:32:33.047Z,9.27
2023-01-29T19:34:59.594Z,10.40
2023-01-29T19:37:26.156Z,9.70
2023-01-29T19:39:53.755Z,9.88
2023-01-29T19:42:20.885Z,8.35
2023-01-29T19:44:47.633Z,9.18
2023-01-29T19:47:14.217Z,10.25
2023-01-29T19:49:40.731Z,11.57
2023-01-29T19:52:14.795Z,11.52
2023-01-29T19:54:46.539Z,17.88
2023-01-29T19:59:39.452Z,11.10
2023-01-29T20:02:06.371Z,13.80
2023-01-29T20:04:32.975Z,14.60
2023-01-29T20:06:59.405Z,12.02
2023-01-29T20:09:25.910Z,12.68
2023-01-29T20:11:52.423Z,13.98
2023-01-29T20:14:18.866Z,13.13
2023-01-29T20:16:45.344Z,14.07
2023-01-29T20:19:14.346Z,13.48
2023-01-29T20:21:42.508Z,12.82
2023-01-29T20:24:12.623Z,11.57
2023-01-29T20:26:39.151Z,12.93
2023-01-29T20:29:06.392Z,13.55
2023-01-29T20:31:33.756Z,11.88
2023-01-29T20:34:00.196Z,15.65
2023-01-29T20:36:26.670Z,13.00
2023-01-29T20:38:53.127Z,13.98
2023-01-29T20:41:19.853Z,13.00
2023-01-29T20:43:47.295Z,12.93
2023-01-29T20:46:14.267Z,12.68
2023-01-29T20:48:41.982Z,13.35
2023-01-29T20:51:15.454Z,14.68
2023-01-29T20:53:45.043Z,13.80
2023-01-29T20:56:12.918Z,11.63
2023-01-29T20:58:40.998Z,11.90
2023-01-29T21:01:09.665Z,13.10
2023-01-29T21:03:36.580Z,11.43
2023-01-29T21:06:03.001Z,11.13
2023-01-29T21:08:29.520Z,10.50
2023-01-29T21:10:56.149Z,10.55
2023-01-29T21:13:22.713Z,10.18
2023-01-29T21:15:52.597Z,9.98
2023-01-29T21:18:19.553Z,10.23
2023-01-29T21:20:46.041Z,10.05
2023-01-29T21:23:12.500Z,9.50
2023-01-29T21:25:39.605Z,9.38
2023-01-29T21:28:06.087Z,10.23
2023-01-29T21:30:33.743Z,9.70
2023-01-29T21:33:00.173Z,11.30
2023-01-29T21:35:26.683Z,10.48
2023-01-29T21:37:53.186Z,10.73
2023-01-29T21:40:21.143Z,10.60
2023-01-29T21:43:06.495Z,11.45
2023-01-29T21:45:34.774Z,10.98
2023-01-29T21:48:02.302Z,10.15
2023-01-29T21:50:28.761Z,12.60
2023-01-29T21:52:55.188Z,11.48
2023-01-29T21:55:21.648Z,10.00
2023-01-29T21:57:48.768Z,11.63
2023-01-29T22:00:16.003Z,10.77
2023-01-29T22:02:42.743Z,12.18
2023-01-29T22:05:18.652Z,13.98
2023-01-29T22:07:45.755Z,13.15
2023-01-29T22:10:12.784Z,12.73
2023-01-29T22:12:39.904Z,12.32
2023-01-29T22:15:07.805Z,12.27
2023-01-29T22:17:35.180Z,12.52
2023-01-29T22:20:02.085Z,12.60
2023-01-29T22:22:28.552Z,12.73
2023-01-29T22:24:56.413Z,11.43
2023-01-29T22:27:22.887Z,11.48
2023-01-29T22:29:49.362Z,11.55
2023-01-29T22:32:16.331Z,11.68
2023-01-29T22:34:42.857Z,11.50
2023-01-29T22:37:09.262Z,10.80
2023-01-29T22:39:35.799Z,12.10
2023-01-29T22:42:02.192Z,11.10
2023-01-29T22:44:28.661Z,11.82
2023-01-29T22:46:55.102Z,13.77
2023-01-29T22:49:21.594Z,12.63
2023-01-29T22:51:48.100Z,14.00
2023-01-29T22:54:15.497Z,13.20
2023-01-29T22:56:41.950Z,10.60
2023-01-29T22:59:10.051Z,10.80
2023-01-29T23:01:36.556Z,11.27
2023-01-29T23:04:03.038Z,11.15
2023-01-29T23:06:29.510Z,12.73
2023-01-29T23:08:55.994Z,12.65
2023-01-29T23:11:23.472Z,9.48
2023-01-29T23:13:52.727Z,10.65
2023-01-29T23:16:21.792Z,10.63
2023-01-29T23:18:53.215Z,10.63
2023-01-29T23:21:22.610Z,9.90
2023-01-29T23:23:49.284Z,10.80
2023-01-29T23:26:34.619Z,10.85
2023-01-29T23:29:01.166Z,9.80
2023-01-29T23:31:27.760Z,10.68
2023-01-29T23:33:54.249Z,10.80
2023-01-29T23:36:21.173Z,11.18
2023-01-29T23:38:47.643Z,9.85
2023-01-29T23:41:14.097Z,9.70
2023-01-29T23:43:40.576Z,9.40
2023-01-29T23:46:07.429Z,9.23
2023-01-29T23:48:33.943Z,9.00
2023-01-29T23:51:00.608Z,10.00
2023-01-29T23:53:27.488Z,8.98
2023-01-29T23:55:59.192Z,9.00
2023-01-29T23:58:26.470Z,9.38
